Time;durP1;ratioP1;P1;durP2;ratioP2;P2;SDS_P1;SDS_P2;PMS_P1;PMS_P2;Temp;Humidity;BMP_temperature;BMP_pressure;BME280_temperature;BME280_humidity;BME280_pressure;Samples;Min_cycle;Max_cycle;Signal;HPM_P1;HPM_P2
2021/03/03 00:01:01;;;;;;;30.45;22.05;;;;;;;7.04;61.51;102255.53;5112914;28;20046;-74
2021/03/03 00:04:06;;;;;;;30.92;21.85;;;;;;;6.90;61.92;102252.56;5113503;28;20050;-73
2021/03/03 00:07:10;;;;;;;27.52;20.67;;;;;;;6.84;62.14;102252.81;5084370;28;20410;-72
2021/03/03 00:10:14;;;;;;;26.98;20.58;;;;;;;6.86;62.35;102252.78;5111740;28;20058;-73
2021/03/03 00:13:19;;;;;;;24.55;19.55;;;;;;;6.80;62.29;102251.22;5099801;28;20505;-79
2021/03/03 00:16:23;;;;;;;26.08;19.73;;;;;;;6.79;62.30;102246.81;5112903;28;20058;-83
2021/03/03 00:19:27;;;;;;;24.63;20.13;;;;;;;6.75;62.43;102249.69;5100830;28;20047;-77
2021/03/03 00:22:31;;;;;;;25.58;20.00;;;;;;;6.70;62.51;102247.19;5111497;28;20398;-74
2021/03/03 00:25:35;;;;;;;;;;;;;;;6.68;62.49;102245.53;5112186;28;20050;-74
2021/03/03 00:28:39;;;;;;;26.42;19.45;;;;;;;6.61;62.59;102241.38;5100026;28;19915;-83
2021/03/03 00:31:43;;;;;;;25.98;19.85;;;;;;;6.63;62.73;102243.06;5112720;28;20051;-75
2021/03/03 00:34:48;;;;;;;26.90;20.65;;;;;;;6.61;62.56;102246.72;5113514;28;20422;-75
2021/03/03 00:37:52;;;;;;;24.92;19.75;;;;;;;6.62;62.51;102241.31;5111089;28;20031;-77
2021/03/03 00:40:56;;;;;;;;;;;;;;;6.58;62.74;102245.03;5112014;28;20043;-75
2021/03/03 00:44:00;;;;;;;27.98;21.25;;;;;;;6.57;62.74;102239.78;5099721;28;19920;-74
2021/03/03 00:47:04;;;;;;;26.90;18.88;;;;;;;6.53;62.55;102245.25;5112867;28;20114;-74
2021/03/03 00:50:09;;;;;;;28.27;19.88;;;;;;;6.50;62.55;102248.03;5089155;28;20055;-73
2021/03/03 00:53:18;;;;;;;26.38;20.35;;;;;;;6.49;62.56;102240.94;5099515;28;20042;-74
2021/03/03 00:56:22;;;;;;;24.33;18.52;;;;;;;6.51;62.47;102238.22;5099892;28;20047;-74
2021/03/03 00:59:27;;;;;;;28.10;21.00;;;;;;;6.52;62.44;102239.94;5112863;28;20043;-77
2021/03/03 01:02:33;;;;;;;30.77;20.42;;;;;;;6.53;62.14;102239.03;5098414;28;20047;-79
2021/03/03 01:05:41;;;;;;;26.50;19.40;;;;;;;6.52;62.38;102242.63;5111397;28;20055;-78
2021/03/03 01:08:46;;;;;;;29.33;20.20;;;;;;;6.52;62.48;102239.94;5112669;28;20043;-74
2021/03/03 01:11:52;;;;;;;28.52;19.73;;;;;;;6.50;62.54;102237.34;5098418;28;20048;-73
2021/03/03 01:14:59;;;;;;;27.42;20.33;;;;;;;6.50;62.53;102241.81;5099138;28;20047;-73
2021/03/03 01:18:04;;;;;;;24.27;18.67;;;;;;;6.51;62.55;102240.91;5099756;28;20043;-71
2021/03/03 01:21:09;;;;;;;26.98;19.58;;;;;;;6.48;62.69;102235.69;5104506;28;20047;-72
2021/03/03 01:24:14;;;;;;;23.95;18.77;;;;;;;6.47;62.69;102226.81;5114996;28;20047;-72
2021/03/03 01:27:19;;;;;;;28.05;19.33;;;;;;;6.43;62.63;102232.34;5115192;28;20054;-72
2021/03/03 01:30:23;;;;;;;27.60;19.92;;;;;;;6.41;62.86;102232.41;5103307;28;20050;-78
2021/03/03 01:33:29;;;;;;;26.08;19.45;;;;;;;6.40;62.69;102229.78;5103799;28;20063;-77
2021/03/03 01:36:34;;;;;;;29.15;19.70;;;;;;;6.39;62.55;102228.06;5114549;28;20055;-84
2021/03/03 01:39:38;;;;;;;25.33;19.55;;;;;;;6.47;62.45;102225.94;5115344;28;20043;-80
2021/03/03 01:42:41;;;;;;;;;;;;;;;6.46;62.40;102234.88;5115916;28;20043;-81
2021/03/03 01:45:48;;;;;;;25.63;18.67;;;;;;;6.45;62.28;102234.00;5116267;28;20290;-79
2021/03/03 01:48:53;;;;;;;25.08;18.95;;;;;;;6.44;62.51;102229.59;5114276;28;20505;-79
2021/03/03 01:51:57;;;;;;;24.58;18.92;;;;;;;6.39;62.70;102228.06;5102220;28;20043;-80
2021/03/03 01:55:02;;;;;;;26.85;19.38;;;;;;;6.35;62.85;102223.75;5102967;28;20046;-72
2021/03/03 01:58:06;;;;;;;25.48;18.55;;;;;;;6.33;62.82;102226.50;5115718;28;20506;-80
2021/03/03 02:01:10;;;;;;;24.60;17.70;;;;;;;6.32;62.72;102222.09;5103660;28;20040;-79
2021/03/03 02:04:15;;;;;;;29.17;19.55;;;;;;;6.32;62.97;102226.56;5089888;28;20398;-72
2021/03/03 02:07:30;;;;;;;26.27;18.58;;;;;;;6.30;62.80;102217.75;5102146;28;20046;-71
2021/03/03 02:10:38;;;;;;;28.80;21.23;;;;;;;6.30;62.85;102217.75;5113768;28;20054;-73
2021/03/03 02:13:45;;;;;;;26.20;19.42;;;;;;;6.26;62.86;102226.81;5114836;28;20042;-72
2021/03/03 02:16:50;;;;;;;28.98;18.45;;;;;;;6.23;62.75;102226.94;5115714;28;20066;-73
2021/03/03 02:19:59;;;;;;;26.40;18.60;;;;;;;6.29;62.68;102221.38;5113665;28;20400;-73
2021/03/03 02:23:46;;;;;;;27.95;19.58;;;;;;;6.21;62.62;102226.13;5114929;28;20046;-73
2021/03/03 02:26:56;;;;;;;25.35;19.08;;;;;;;6.14;62.77;102227.31;5122837;28;20043;-78
2021/03/03 02:30:04;;;;;;;24.98;18.65;;;;;;;6.04;63.07;102217.94;5113768;28;20066;-75
2021/03/03 02:33:11;;;;;;;25.95;19.60;;;;;;;6.03;63.34;102217.06;5115318;28;20496;-76
2021/03/03 02:36:16;;;;;;;24.67;18.58;;;;;;;6.10;63.05;102207.03;5101308;28;20501;-74
2021/03/03 02:39:23;;;;;;;23.92;17.58;;;;;;;6.17;63.03;102216.53;5114175;28;20066;-73
2021/03/03 02:42:27;;;;;;;28.95;19.65;;;;;;;6.16;62.85;102217.44;5102312;28;20062;-74
2021/03/03 02:45:30;;;;;;;;;;;;;;;6.08;62.86;102219.53;5100855;28;20505;-73
2021/03/03 02:48:34;;;;;;;25.77;17.77;;;;;;;6.03;63.27;102216.19;5113371;28;19920;-80
2021/03/03 02:51:39;;;;;;;25.10;17.92;;;;;;;6.01;63.16;102215.38;5114009;28;20066;-84
2021/03/03 02:54:43;;;;;;;27.00;18.23;;;;;;;6.02;63.22;102215.34;5079598;28;20398;-78
2021/03/03 02:57:48;;;;;;;25.88;17.80;;;;;;;6.02;63.12;102215.34;5114742;28;20043;-81
2021/03/03 03:01:00;;;;;;;27.38;17.98;;;;;;;6.04;62.90;102213.47;5112480;28;20046;-72
2021/03/03 03:04:06;;;;;;;24.63;18.33;;;;;;;6.07;63.25;102209.81;5114656;28;20059;-76
2021/03/03 03:07:31;;;;;;;25.15;18.73;;;;;;;6.10;63.10;102220.38;5114928;28;20043;-75
2021/03/03 03:10:37;;;;;;;26.17;18.75;;;;;;;6.06;63.41;102216.06;5112327;28;20070;-74
2021/03/03 03:13:42;;;;;;;23.95;18.67;;;;;;;6.08;64.15;102211.53;5113593;28;20051;-72
2021/03/03 03:16:49;;;;;;;27.67;20.48;;;;;;;6.07;64.91;102215.16;5114437;28;20227;-75
2021/03/03 03:19:55;;;;;;;22.13;17.63;;;;;;;6.07;65.05;102220.47;5112340;28;20062;-74
2021/03/03 03:23:06;;;;;;;22.42;18.10;;;;;;;6.03;65.01;102221.50;5113360;28;20394;-82
2021/03/03 03:26:11;;;;;;;21.92;18.58;;;;;;;5.89;64.99;102214.06;5101861;28;20043;-73
2021/03/03 03:29:16;;;;;;;27.63;18.48;;;;;;;5.87;64.76;102223.94;5112595;28;20510;-76
2021/03/03 03:32:21;;;;;;;23.35;18.80;;;;;;;5.84;64.98;102216.91;5113343;28;20058;-74
2021/03/03 03:35:29;;;;;;;27.42;18.95;;;;;;;5.73;65.11;102207.53;5113621;28;20043;-73
2021/03/03 03:38:34;;;;;;;26.85;19.30;;;;;;;5.72;64.80;102212.03;5111864;28;20047;-73
2021/03/03 03:41:39;;;;;;;23.40;17.80;;;;;;;5.71;64.74;102212.94;5112387;28;20063;-75
2021/03/03 03:44:46;;;;;;;22.38;17.42;;;;;;;5.69;64.71;102211.25;5113457;28;20055;-79
2021/03/03 03:47:51;;;;;;;24.42;17.10;;;;;;;5.66;64.52;102203.38;5114313;28;20498;-77
2021/03/03 03:50:55;;;;;;;23.77;18.05;;;;;;;5.70;64.39;102210.34;5099459;28;20390;-73
2021/03/03 03:54:00;;;;;;;24.92;18.08;;;;;;;5.59;64.22;102208.09;5112526;28;20398;-72
2021/03/03 03:57:04;;;;;;;24.17;18.58;;;;;;;5.51;64.01;102207.50;5113095;28;20054;-73
2021/03/03 04:00:09;;;;;;;26.38;18.67;;;;;;;5.46;64.33;102211.25;5113513;28;20043;-75
2021/03/03 04:03:14;;;;;;;25.25;17.90;;;;;;;5.41;64.54;102200.75;5111622;28;20043;-75
2021/03/03 04:06:18;;;;;;;26.48;17.73;;;;;;;5.39;64.35;102189.31;5111892;28;20039;-73
2021/03/03 04:09:22;;;;;;;;;;;;;;;5.31;64.90;102195.84;5112935;28;20046;-80
2021/03/03 04:12:25;;;;;;;22.30;17.42;;;;;;;5.30;64.64;102202.97;5100605;28;20362;-79
2021/03/03 04:15:30;;;;;;;23.63;17.95;;;;;;;5.24;64.88;102200.53;5113353;28;20035;-75
2021/03/03 04:18:35;;;;;;;24.25;18.50;;;;;;;5.19;64.71;102197.16;5098781;28;20054;-80
2021/03/03 04:21:39;;;;;;;22.15;17.67;;;;;;;5.21;64.66;102201.50;5099237;28;20042;-77
2021/03/03 04:24:44;;;;;;;26.35;17.45;;;;;;;5.16;64.60;102190.16;5099995;28;20042;-73
2021/03/03 04:27:48;;;;;;;22.75;16.90;;;;;;;5.16;64.57;102198.13;5113133;28;20051;-78
2021/03/03 04:30:52;;;;;;;22.52;16.70;;;;;;;5.18;64.59;102200.75;5100896;28;20035;-78
2021/03/03 04:33:56;;;;;;;20.17;16.25;;;;;;;5.11;64.66;102192.09;5111672;28;20054;-74
2021/03/03 04:37:00;;;;;;;21.98;17.27;;;;;;;5.17;64.59;102196.34;5112014;28;20506;-75
2021/03/03 04:40:10;;;;;;;24.33;17.33;;;;;;;5.12;64.60;102195.63;5112398;28;20035;-73
2021/03/03 04:43:13;;;;;;;23.73;16.83;;;;;;;5.12;64.60;102190.31;5098426;28;20047;-72
2021/03/03 04:46:17;;;;;;;22.63;16.38;;;;;;;5.13;64.52;102192.94;5098982;28;20497;-73
2021/03/03 04:49:21;;;;;;;;;;;;;;;5.12;64.62;102192.97;5112646;28;20047;-73
2021/03/03 04:52:25;;;;;;;30.73;17.80;;;;;;;5.10;64.75;102178.88;5112653;28;19915;-75
2021/03/03 04:55:29;;;;;;;23.20;17.65;;;;;;;5.11;64.88;102185.94;5116820;28;20039;-76
2021/03/03 04:58:33;;;;;;;;;;;;;;;5.10;64.59;102178.88;5115502;28;20386;-81
2021/03/03 05:01:37;;;;;;;25.00;16.95;;;;;;;5.14;64.52;102178.69;5102913;28;19915;-75
2021/03/03 05:04:40;;;;;;;;;;;;;;;5.11;64.41;102180.63;5103755;28;20529;-74
2021/03/03 05:07:44;;;;;;;22.13;16.48;;;;;;;5.13;64.51;102181.41;5116404;28;19916;-74
2021/03/03 05:10:48;;;;;;;;;;;;;;;5.09;64.53;102171.78;5095620;28;20055;-74
2021/03/03 05:13:52;;;;;;;24.17;16.38;;;;;;;5.07;64.66;102170.97;5096686;28;19916;-74
2021/03/03 05:16:56;;;;;;;29.67;18.38;;;;;;;5.04;64.65;102169.31;5094842;28;20054;-73
2021/03/03 05:20:01;;;;;;;24.40;17.00;;;;;;;5.12;64.33;102179.66;5094466;28;20092;-74
2021/03/03 05:23:05;;;;;;;24.20;16.67;;;;;;;5.08;64.15;102168.28;5083011;28;20043;-71
2021/03/03 05:26:09;;;;;;;25.52;16.45;;;;;;;5.11;64.09;102169.97;5096035;28;20047;-80
2021/03/03 05:29:13;;;;;;;23.38;15.63;;;;;;;5.09;64.25;102179.78;5095543;28;20036;-85
2021/03/03 05:32:17;;;;;;;22.63;15.85;;;;;;;5.07;64.01;102170.97;5094507;28;20063;-80
2021/03/03 05:35:21;;;;;;;22.35;16.08;;;;;;;5.07;63.79;102170.97;5094013;28;20071;-75
2021/03/03 05:38:26;;;;;;;24.02;16.38;;;;;;;5.07;63.89;102169.19;5082819;28;20040;-72
2021/03/03 05:41:30;;;;;;;24.08;15.68;;;;;;;5.14;63.70;102167.16;5095144;28;20047;-73
2021/03/03 05:44:35;;;;;;;21.95;15.18;;;;;;;5.20;63.52;102166.97;5093967;28;20063;-73
2021/03/03 05:47:40;;;;;;;23.67;15.80;;;;;;;5.24;63.20;102169.44;5094341;28;20498;-82
2021/03/03 05:50:47;;;;;;;19.92;15.73;;;;;;;5.33;62.71;102180.69;5094929;28;20059;-79
2021/03/03 05:53:52;;;;;;;18.90;14.82;;;;;;;5.37;62.48;102167.19;5094816;28;20398;-82
2021/03/03 05:56:58;;;;;;;24.25;16.42;;;;;;;5.41;62.27;102168.81;5093453;28;20524;-81
2021/03/03 06:00:22;;;;;;;23.70;15.60;;;;;;;5.54;61.95;102164.78;5093710;28;20043;-84
2021/03/03 06:03:27;;;;;;;38.17;28.67;;;;;;;5.59;61.84;102175.25;5093795;28;20059;-78
2021/03/03 06:06:32;;;;;;;125.10;81.60;;;;;;;5.62;61.29;102173.34;5093946;28;20047;-82
2021/03/03 06:09:36;;;;;;;28.58;18.67;;;;;;;5.71;61.27;102175.66;5095974;28;20039;-81
2021/03/03 06:12:40;;;;;;;27.05;16.15;;;;;;;5.83;60.99;102177.81;5114428;28;20070;-81
2021/03/03 06:15:44;;;;;;;;;;;;;;;6.05;60.40;102177.03;5115010;28;20506;-85
2021/03/03 06:18:48;;;;;;;;;;;;;;;6.23;59.86;102174.47;5115467;28;19927;-79
2021/03/03 06:21:52;;;;;;;20.00;14.00;;;;;;;6.53;59.40;102183.00;5115496;28;19916;-82
2021/03/03 06:24:57;;;;;;;22.83;15.07;;;;;;;6.91;58.38;102184.06;5113195;28;20042;-82
2021/03/03 06:28:02;;;;;;;20.83;14.60;;;;;;;7.29;56.89;102188.56;5114023;28;20074;-84
2021/03/03 06:31:32;;;;;;;21.30;15.20;;;;;;;7.51;56.05;102186.63;5114746;28;20501;-83
2021/03/03 06:34:49;;;;;;;20.98;14.30;;;;;;;7.83;55.43;102187.81;5113068;28;20042;-83
2021/03/03 06:37:56;;;;;;;17.42;13.15;;;;;;;8.14;53.94;102184.53;5115134;28;20047;-79
2021/03/03 06:41:07;;;;;;;22.73;14.25;;;;;;;8.77;52.66;102193.88;5100748;28;20039;-82
2021/03/03 06:44:11;;;;;;;25.50;14.45;;;;;;;9.21;51.17;102186.22;5115002;28;20402;-83
2021/03/03 06:47:17;;;;;;;23.00;14.43;;;;;;;10.11;49.21;102185.69;5095466;28;20046;-74
2021/03/03 06:50:32;;;;;;;22.80;15.23;;;;;;;10.34;50.92;102193.31;5100409;28;20474;-73
2021/03/03 06:53:36;;;;;;;29.25;18.50;;;;;;;10.48;49.42;102197.88;5102697;28;20398;-73
2021/03/03 06:56:40;;;;;;;;;;;;;;;10.92;46.80;102193.44;5115953;28;20048;-73
2021/03/03 06:59:44;;;;;;;20.33;15.32;;;;;;;11.08;46.40;102195.09;5102193;28;19923;-74
2021/03/03 07:02:48;;;;;;;24.40;14.77;;;;;;;11.43;45.26;102202.84;5114518;28;20043;-73
2021/03/03 07:05:52;;;;;;;;;;;;;;;12.13;43.41;102189.38;5112868;28;20051;-74
2021/03/03 07:08:59;;;;;;;20.70;14.27;;;;;;;11.38;45.40;102195.03;5100760;28;19916;-74
2021/03/03 07:11:45;;;;;;;19.80;13.60;;;;;;;10.90;46.13;102195.34;5076317;28;20047;-74
2021/03/03 07:15:09;;;;;;;23.33;14.48;;;;;;;10.55;47.13;102193.88;5077781;28;20036;-76
2021/03/03 07:18:36;;;;;;;27.52;14.85;;;;;;;10.84;47.11;102196.59;5096445;28;20044;-72
2021/03/03 07:21:40;;;;;;;22.48;14.38;;;;;;;11.24;46.11;102196.84;5090058;28;20036;-73
2021/03/03 07:24:46;;;;;;;18.67;13.73;;;;;;;12.18;44.30;102205.22;5092848;28;20040;-75
2021/03/03 07:27:51;;;;;;;17.92;14.45;;;;;;;12.33;43.52;102202.38;5073366;28;20041;-76
2021/03/03 07:30:55;;;;;;;17.98;13.48;;;;;;;12.31;44.31;102204.31;5074048;28;20048;-75
2021/03/03 07:34:01;;;;;;;21.20;14.43;;;;;;;12.19;44.28;102197.06;5073443;28;20048;-82
2021/03/03 07:37:06;;;;;;;19.85;13.70;;;;;;;12.54;44.05;102205.47;5074575;28;20048;-77
2021/03/03 07:40:12;;;;;;;17.75;13.70;;;;;;;13.63;42.21;102201.47;5073623;28;20052;-79
2021/03/03 07:43:24;;;;;;;18.75;13.35;;;;;;;15.61;36.89;102191.78;5073863;28;20052;-74
2021/03/03 07:46:28;;;;;;;27.40;13.70;;;;;;;15.21;38.17;102200.44;5074094;28;20052;-75
2021/03/03 07:49:34;;;;;;;22.92;13.80;;;;;;;16.37;36.25;102190.13;5075484;28;20499;-73
2021/03/03 07:52:53;;;;;;;17.40;13.18;;;;;;;18.07;33.15;102190.63;5087299;28;20040;-80
2021/03/03 07:55:59;;;;;;;18.08;14.02;;;;;;;19.95;30.13;102193.53;5090481;28;20503;-73
2021/03/03 07:59:08;;;;;;;18.23;14.15;;;;;;;21.89;27.53;102184.47;5073213;28;20044;-74
2021/03/03 08:02:12;;;;;;;18.67;14.30;;;;;;;24.11;24.20;102185.97;5093420;28;20139;-79
2021/03/03 08:05:37;;;;;;;20.75;14.82;;;;;;;28.29;20.24;102178.84;5092935;28;20040;-73
2021/03/03 08:08:41;;;;;;;21.85;15.57;;;;;;;31.24;17.17;102169.97;5093266;28;20044;-82
2021/03/03 08:11:47;;;;;;;19.27;14.10;;;;;;;30.32;17.61;102172.47;5112310;28;20048;-81
2021/03/03 08:14:51;;;;;;;17.40;14.68;;;;;;;30.64;17.63;102171.47;5109086;28;20047;-74
2021/03/03 08:18:14;;;;;;;17.77;14.30;;;;;;;33.36;15.45;102169.59;5096120;28;20047;-79
2021/03/03 08:21:18;;;;;;;19.20;14.32;;;;;;;35.36;14.20;102158.44;5113852;28;20043;-78
2021/03/03 08:24:38;;;;;;;18.98;14.27;;;;;;;37.80;12.31;102171.84;5101096;28;20039;-79
2021/03/03 08:27:42;;;;;;;17.45;13.60;;;;;;;39.38;11.53;102157.16;5113155;28;20044;-81
2021/03/03 08:31:06;;;;;;;16.70;13.10;;;;;;;41.37;10.79;102158.41;5113184;28;20043;-79
2021/03/03 08:34:11;;;;;;;14.90;12.30;;;;;;;40.23;11.28;102154.13;5116583;28;20043;-80
2021/03/03 08:37:27;;;;;;;16.10;14.38;;;;;;;40.45;11.30;102159.38;5113678;28;20044;-80
2021/03/03 08:40:32;;;;;;;17.75;13.60;;;;;;;39.87;11.54;102158.19;5100347;28;20043;-76
2021/03/03 08:43:37;;;;;;;23.63;15.00;;;;;;;39.42;12.06;102159.13;5113508;28;20048;-83
2021/03/03 08:46:41;;;;;;;21.20;15.27;;;;;;;40.05;11.44;102160.38;5113341;28;20040;-84
2021/03/03 08:49:45;;;;;;;18.92;14.07;;;;;;;40.69;11.43;102149.06;5113374;28;20048;-77
2021/03/03 08:53:18;;;;;;;20.10;13.98;;;;;;;40.89;11.40;102151.75;5113205;28;20401;-78
2021/03/03 08:56:41;;;;;;;23.23;15.23;;;;;;;39.20;12.30;102150.16;5111477;28;20379;-77
2021/03/03 08:59:45;;;;;;;19.95;14.23;;;;;;;39.22;12.47;102156.31;5090422;28;20044;-81
2021/03/03 09:02:50;;;;;;;17.80;13.68;;;;;;;38.80;12.63;102159.38;5092270;28;20048;-79
2021/03/03 09:05:56;;;;;;;16.10;14.43;;;;;;;39.09;12.61;102153.19;5111255;28;20047;-74
2021/03/03 09:09:01;;;;;;;16.33;13.30;;;;;;;39.49;12.36;102154.03;5109803;28;20483;-82
2021/03/03 09:12:10;;;;;;;15.50;13.05;;;;;;;39.08;12.53;102155.19;5086891;28;20040;-76
2021/03/03 09:15:16;;;;;;;15.05;12.55;;;;;;;38.45;13.16;102156.47;5103195;28;20039;-75
2021/03/03 09:18:20;;;;;;;14.32;12.82;;;;;;;37.80;13.38;102152.22;5099175;28;20067;-79
2021/03/03 09:21:29;;;;;;;15.05;13.55;;;;;;;38.42;13.89;102149.44;5107890;28;20410;-73
2021/03/03 09:24:33;;;;;;;17.38;13.48;;;;;;;37.06;13.90;102154.19;5111545;28;20052;-86
2021/03/03 09:27:47;;;;;;;14.77;12.80;;;;;;;36.69;14.64;102144.84;5110626;28;20059;-86
2021/03/03 09:30:51;;;;;;;15.80;13.98;;;;;;;36.23;14.87;102145.44;5098203;28;20475;-80
2021/03/03 09:33:55;;;;;;;15.55;13.98;;;;;;;35.89;14.69;102131.59;5099244;28;20044;-85
2021/03/03 09:37:03;;;;;;;21.42;15.20;;;;;;;35.05;15.11;102135.59;5110895;28;20048;-82
2021/03/03 09:40:10;;;;;;;21.83;15.68;;;;;;;33.75;15.97;102142.97;5099149;28;20044;-82
2021/03/03 09:43:15;;;;;;;18.00;16.13;;;;;;;33.60;16.34;102137.06;5114705;28;20040;-73
2021/03/03 09:46:19;;;;;;;18.98;16.30;;;;;;;32.23;17.46;102128.09;5114653;28;20495;-85
2021/03/03 09:49:29;;;;;;;23.98;19.15;;;;;;;29.81;19.56;102130.88;5113589;28;20047;-82
2021/03/03 09:52:34;;;;;;;24.92;19.42;;;;;;;26.85;22.42;102128.13;5102202;28;20044;-79
2021/03/03 09:55:39;;;;;;;22.77;19.80;;;;;;;24.75;24.97;102136.16;5101402;28;20036;-76
2021/03/03 09:58:44;;;;;;;22.95;20.45;;;;;;;23.16;26.95;102134.75;5109021;28;20039;-75
2021/03/03 10:01:49;;;;;;;25.25;20.70;;;;;;;22.45;28.09;102134.53;5114167;28;20048;-80
2021/03/03 10:04:55;;;;;;;28.98;20.75;;;;;;;21.50;29.43;102139.47;5099141;28;20040;-74
2021/03/03 10:08:03;;;;;;;29.00;22.92;;;;;;;21.00;29.77;102140.13;5110744;28;20047;-79
2021/03/03 10:11:07;;;;;;;30.58;21.80;;;;;;;20.32;30.52;102138.13;5114204;28;20398;-78
2021/03/03 10:14:11;;;;;;;28.90;22.90;;;;;;;19.55;31.47;102137.66;5111955;28;20051;-72
2021/03/03 10:17:26;;;;;;;32.63;24.42;;;;;;;19.16;32.61;102137.72;5097247;28;20043;-72
2021/03/03 10:20:36;;;;;;;30.95;23.35;;;;;;;18.82;32.62;102137.34;5101463;28;20052;-72
2021/03/03 10:23:41;;;;;;;32.97;24.40;;;;;;;19.01;32.63;102135.63;5113685;28;20055;-82
2021/03/03 10:26:52;;;;;;;30.38;23.80;;;;;;;18.79;32.50;102142.22;5100801;28;20044;-82
2021/03/03 10:29:56;;;;;;;32.72;23.92;;;;;;;18.56;32.48;102136.22;5097883;28;20043;-74
2021/03/03 10:33:01;;;;;;;33.63;23.30;;;;;;;18.23;33.64;102128.41;5113252;28;20418;-74
2021/03/03 10:36:06;;;;;;;33.38;24.63;;;;;;;18.06;33.89;102131.81;5113371;28;20031;-74
2021/03/03 10:39:10;;;;;;;33.15;23.42;;;;;;;17.96;35.95;102128.22;5113991;28;20040;-75
2021/03/03 10:42:20;;;;;;;31.48;24.27;;;;;;;18.30;35.24;102121.41;5113228;28;20063;-86
2021/03/03 10:45:24;;;;;;;34.63;24.38;;;;;;;18.37;35.30;102117.13;5112860;28;20036;-76
2021/03/03 10:48:31;;;;;;;40.97;26.77;;;;;;;18.18;34.27;102115.25;5113647;28;20044;-72
2021/03/03 10:51:37;;;;;;;37.05;25.98;;;;;;;17.98;35.28;102104.47;5112500;28;20044;-76
2021/03/03 10:54:41;;;;;;;34.78;27.08;;;;;;;17.98;35.32;102113.50;5100353;28;20039;-77
2021/03/03 10:58:07;;;;;;;45.22;28.27;;;;;;;17.80;35.49;102117.03;5108649;28;20044;-80
2021/03/03 11:01:11;;;;;;;39.70;26.65;;;;;;;17.84;34.90;102108.47;5109257;28;20035;-80
2021/03/03 11:04:16;;;;;;;33.80;26.15;;;;;;;17.69;35.22;102103.53;5112830;28;20043;-75
2021/03/03 11:07:20;;;;;;;41.17;27.55;;;;;;;17.83;35.67;102103.16;5112835;28;20043;-80
2021/03/03 11:10:25;;;;;;;37.22;26.83;;;;;;;17.78;35.48;102097.28;5110577;27;20035;-76
2021/03/03 11:13:36;;;;;;;32.63;26.33;;;;;;;17.95;35.61;102091.16;5110181;28;20398;-83
2021/03/03 11:16:43;;;;;;;42.53;27.08;;;;;;;17.74;35.48;102085.84;5092114;28;20044;-72
2021/03/03 11:19:47;;;;;;;37.20;26.83;;;;;;;17.63;36.07;102080.50;5112743;28;20036;-72
2021/03/03 11:22:51;;;;;;;42.47;27.48;;;;;;;17.78;36.24;102081.84;5108619;28;20476;-73
2021/03/03 11:25:57;;;;;;;36.90;26.20;;;;;;;17.77;35.63;102076.56;5109342;28;20039;-73
2021/03/03 11:29:02;;;;;;;38.33;29.00;;;;;;;17.37;36.50;102065.66;5099399;28;20040;-71
2021/03/03 11:32:07;;;;;;;36.17;26.67;;;;;;;17.41;36.39;102065.25;5109794;28;20059;-75
2021/03/03 11:35:11;;;;;;;36.63;27.83;;;;;;;17.31;36.44;102060.78;5108657;28;20043;-78
2021/03/03 11:38:16;;;;;;;36.67;26.80;;;;;;;17.19;36.80;102060.00;5112365;28;20043;-72
2021/03/03 11:41:21;;;;;;;39.17;28.55;;;;;;;17.19;36.91;102062.72;5112362;28;20043;-73
2021/03/03 11:44:25;;;;;;;39.42;29.85;;;;;;;16.91;38.27;102050.72;5112476;28;20040;-75
2021/03/03 11:47:29;;;;;;;41.10;29.42;;;;;;;16.96;37.78;102042.19;5099691;28;20039;-73
2021/03/03 11:50:46;;;;;;;39.22;29.08;;;;;;;16.95;38.90;102047.75;5100540;28;20052;-78
2021/03/03 11:53:51;;;;;;;40.13;30.52;;;;;;;16.96;38.76;102031.31;5112544;28;20047;-76
2021/03/03 11:56:56;;;;;;;48.70;30.92;;;;;;;16.82;40.12;102037.09;5098319;28;20035;-73
2021/03/03 12:00:00;;;;;;;39.70;29.80;;;;;;;16.78;39.58;102025.69;5112259;28;20039;-74
2021/03/03 12:03:06;;;;;;;38.88;30.13;;;;;;;16.71;39.49;102024.47;5097972;28;20040;-72
2021/03/03 12:06:10;;;;;;;47.78;31.95;;;;;;;16.80;39.02;102018.28;5109059;28;20047;-78
2021/03/03 12:09:15;;;;;;;44.22;30.92;;;;;;;16.79;39.51;102013.81;5094843;28;20047;-78
2021/03/03 12:12:19;;;;;;;37.15;28.83;;;;;;;16.66;38.99;102005.06;5095422;28;20044;-72
2021/03/03 12:15:24;;;;;;;42.67;30.70;;;;;;;16.65;39.39;102000.63;5098891;28;20039;-72
2021/03/03 12:18:28;;;;;;;46.45;30.77;;;;;;;16.73;39.14;101999.97;5109229;28;20048;-78
2021/03/03 12:21:33;;;;;;;40.33;29.45;;;;;;;16.73;38.89;101994.53;5109333;28;20043;-74
2021/03/03 12:24:37;;;;;;;39.28;30.83;;;;;;;16.85;38.34;101993.44;5098488;28;20044;-82
2021/03/03 12:27:41;;;;;;;40.72;29.98;;;;;;;16.87;39.13;101996.88;5097895;28;20419;-85
2021/03/03 12:30:46;;;;;;;36.95;28.73;;;;;;;17.05;38.37;101978.97;5110410;28;20040;-84
2021/03/03 12:33:50;;;;;;;37.45;27.83;;;;;;;17.26;36.98;101982.47;5110832;28;20043;-84
2021/03/03 12:36:55;;;;;;;39.58;28.58;;;;;;;17.11;36.78;101977.59;5110243;28;20394;-82
2021/03/03 12:39:59;;;;;;;40.33;28.92;;;;;;;17.02;36.46;101973.81;5111293;28;20044;-85
2021/03/03 12:43:03;;;;;;;41.30;28.15;;;;;;;17.09;37.10;101963.28;5110590;28;20047;-85
2021/03/03 12:46:07;;;;;;;38.22;27.80;;;;;;;16.99;36.20;101956.94;5106441;28;20044;-85
2021/03/03 12:49:11;;;;;;;37.13;27.83;;;;;;;17.17;36.12;101963.44;5109832;28;20048;-83
2021/03/03 12:52:15;;;;;;;37.10;26.77;;;;;;;17.15;35.87;101957.31;5111292;28;20043;-83
2021/03/03 12:55:19;;;;;;;34.47;25.38;;;;;;;17.16;34.75;101945.47;5111981;28;20043;-84
2021/03/03 12:58:23;;;;;;;34.08;25.58;;;;;;;17.15;34.25;101949.16;5098644;28;20052;-79
2021/03/03 13:01:28;;;;;;;35.40;25.52;;;;;;;17.19;33.30;101947.88;5098946;28;20491;-83
2021/03/03 13:04:32;;;;;;;33.15;24.20;;;;;;;17.22;33.44;101936.75;5111966;28;20048;-82
2021/03/03 13:07:37;;;;;;;33.53;25.13;;;;;;;17.20;33.98;101931.47;5111238;28;20420;-82
2021/03/03 13:10:40;;;;;;;35.40;26.60;;;;;;;17.20;34.89;101934.19;5111154;28;20048;-84
2021/03/03 13:13:44;;;;;;;40.75;27.45;;;;;;;17.31;34.77;101931.34;5098593;28;20043;-81
2021/03/03 13:16:49;;;;;;;40.72;27.70;;;;;;;17.23;35.62;101931.19;5115316;28;20402;-84
2021/03/03 13:19:53;;;;;;;40.15;26.92;;;;;;;17.15;34.57;101927.47;5102890;28;20051;-82
2021/03/03 13:22:57;;;;;;;37.42;26.27;;;;;;;17.26;33.86;101924.63;5102606;28;20039;-75
2021/03/03 13:26:02;;;;;;;34.47;25.80;;;;;;;17.19;34.29;101921.59;5115812;28;20044;-82
2021/03/03 13:29:06;;;;;;;36.78;26.38;;;;;;;17.21;35.05;101916.91;5114661;28;20048;-79
2021/03/03 13:32:11;;;;;;;38.80;27.55;;;;;;;17.25;35.22;101914.78;5114753;28;20047;-82
2021/03/03 13:35:16;;;;;;;35.92;26.92;;;;;;;17.26;35.31;101911.91;5115459;28;20036;-85
2021/03/03 13:38:20;;;;;;;39.70;26.48;;;;;;;17.31;35.82;101909.63;5113097;28;20059;-72
2021/03/03 13:41:25;;;;;;;35.60;25.48;;;;;;;17.37;34.52;101902.78;5086756;27;20040;-84
2021/03/03 13:44:29;;;;;;;33.47;25.00;;;;;;;17.43;34.18;101903.06;5093590;28;20395;-83
2021/03/03 13:47:34;;;;;;;41.45;28.40;;;;;;;17.43;34.64;101904.97;5072325;28;20051;-77
2021/03/03 13:50:38;;;;;;;40.75;26.67;;;;;;;17.43;35.30;101891.38;5101440;28;20505;-73
2021/03/03 13:53:43;;;;;;;34.47;26.75;;;;;;;17.34;34.98;101886.78;5098202;28;20055;-72
2021/03/03 13:56:47;;;;;;;38.20;25.58;;;;;;;17.23;35.70;101885.03;5113073;28;20044;-85
2021/03/03 13:59:51;;;;;;;35.53;25.33;;;;;;;17.26;35.43;101895.63;5111775;28;20040;-85
2021/03/03 14:02:57;;;;;;;35.10;26.80;;;;;;;17.30;34.32;101894.38;5114772;28;20406;-73
2021/03/03 14:06:03;;;;;;;35.45;26.50;;;;;;;17.22;34.70;101894.19;5099786;28;20052;-75
2021/03/03 14:09:08;;;;;;;38.33;27.17;;;;;;;17.25;35.76;101891.22;5112302;28;20043;-80
2021/03/03 14:12:12;;;;;;;37.17;27.13;;;;;;;17.23;35.39;101885.03;5112828;28;20039;-72
2021/03/03 14:15:16;;;;;;;37.55;28.85;;;;;;;17.18;36.15;101891.91;5101235;28;20044;-83